Time;durP1;ratioP1;P1;durP2;ratioP2;P2;SDS_P1;SDS_P2;PMS_P1;PMS_P2;Temp;Humidity;BMP_temperature;BMP_pressure;BME280_temperature;BME280_humidity;BME280_pressure;Samples;Min_cycle;Max_cycle;Signal;HPM_P1;HPM_P2
2024/02/11 00:02:00;;;;;;;33.87;25.57;;;8.90;99.90;;;;;;5178303;27;20489;-77
2024/02/11 00:04:28;;;;;;;34.47;25.40;;;8.90;99.90;;;;;;5178180;27;20540;-76
2024/02/11 00:06:58;;;;;;;40.97;28.40;;;8.90;99.90;;;;;;5159571;27;20494;-76
2024/02/11 00:09:26;;;;;;;36.17;26.93;;;8.80;99.90;;;;;;5159393;27;20448;-77
2024/02/11 00:11:54;;;;;;;35.83;26.63;;;8.80;99.90;;;;;;5159342;27;20528;-77
2024/02/11 00:14:25;;;;;;;38.10;29.13;;;8.80;99.90;;;;;;5159518;27;20857;-77
2024/02/11 00:16:53;;;;;;;40.90;28.57;;;8.70;99.90;;;;;;5160027;27;20445;-76
2024/02/11 00:19:23;;;;;;;42.50;29.77;;;8.70;99.90;;;;;;5159780;27;20531;-77
2024/02/11 00:21:51;;;;;;;44.30;30.53;;;8.70;99.90;;;;;;5178128;27;20467;-77
2024/02/11 00:24:23;;;;;;;42.13;29.73;;;8.70;99.90;;;;;;5178029;27;20420;-76
2024/02/11 00:26:52;;;;;;;41.63;29.23;;;8.60;99.90;;;;;;5159297;27;20535;-76
2024/02/11 00:29:20;;;;;;;39.57;28.70;;;8.60;99.90;;;;;;5159711;27;20499;-77
2024/02/11 00:31:48;;;;;;;42.93;30.27;;;8.60;99.90;;;;;;5158955;27;20544;-76
2024/02/11 00:34:16;;;;;;;46.83;29.77;;;8.60;99.90;;;;;;5158232;27;20444;-76
2024/02/11 00:36:47;;;;;;;45.97;29.83;;;8.60;99.90;;;;;;5159458;27;20455;-77
2024/02/11 00:39:16;;;;;;;43.97;30.17;;;8.50;99.90;;;;;;5158863;27;20866;-77
2024/02/11 00:41:46;;;;;;;45.88;31.15;;;8.50;99.90;;;;;;5158470;27;20505;-78
2024/02/11 00:44:15;;;;;;;43.40;31.37;;;8.50;99.90;;;;;;5175926;27;20235;-76
2024/02/11 00:46:43;;;;;;;43.07;31.03;;;8.50;99.90;;;;;;5157243;27;20441;-77
2024/02/11 00:49:11;;;;;;;43.97;31.80;;;8.50;99.90;;;;;;5157420;27;20957;-77
2024/02/11 00:51:39;;;;;;;43.03;29.73;;;8.50;99.90;;;;;;5176286;27;20475;-77
2024/02/11 00:54:09;;;;;;;45.77;32.00;;;8.50;99.90;;;;;;5156763;27;20796;-77
2024/02/11 00:56:38;;;;;;;43.87;31.47;;;8.40;99.90;;;;;;5176081;27;20439;-75
2024/02/11 00:59:10;;;;;;;41.50;29.57;;;8.40;99.90;;;;;;5157129;27;20445;-77
2024/02/11 01:01:40;;;;;;;45.10;30.67;;;8.40;99.90;;;;;;5157034;27;20814;-77
2024/02/11 01:04:09;;;;;;;40.80;29.53;;;8.40;99.90;;;;;;5176213;27;20417;-76
2024/02/11 01:06:38;;;;;;;43.27;29.97;;;8.40;99.90;;;;;;5175909;27;20896;-76
2024/02/11 01:09:07;;;;;;;45.80;31.30;;;8.40;99.90;;;;;;5157021;27;20485;-77
2024/02/11 01:11:35;;;;;;;46.03;30.33;;;8.30;99.90;;;;;;5175667;27;20440;-76
2024/02/11 01:14:05;;;;;;;47.50;32.50;;;8.30;99.90;;;;;;5156970;27;20473;-77
2024/02/11 01:16:35;;;;;;;46.10;32.90;;;8.30;99.90;;;;;;5157050;27;20444;-77
2024/02/11 01:19:04;;;;;;;50.30;33.87;;;8.30;99.90;;;;;;5157054;27;20803;-77
2024/02/11 01:21:32;;;;;;;50.23;32.20;;;8.30;99.90;;;;;;5157061;27;20499;-76
2024/02/11 01:24:02;;;;;;;49.00;34.70;;;8.30;99.90;;;;;;5176157;27;20467;-76
2024/02/11 01:26:30;;;;;;;51.67;32.13;;;8.30;99.90;;;;;;5156648;27;20528;-76
2024/02/11 01:28:58;;;;;;;49.13;33.60;;;8.30;99.90;;;;;;5157732;27;20905;-75
2024/02/11 01:31:27;;;;;;;52.53;35.97;;;8.20;99.90;;;;;;5156664;27;20470;-77
2024/02/11 01:33:56;;;;;;;53.27;35.33;;;8.20;99.90;;;;;;5156853;27;20496;-76
2024/02/11 01:36:24;;;;;;;52.37;34.00;;;8.20;99.90;;;;;;5156684;27;20562;-77
2024/02/11 01:38:53;;;;;;;49.37;33.80;;;8.20;99.90;;;;;;5175508;27;20433;-76
2024/02/11 01:41:22;;;;;;;53.43;35.40;;;8.20;99.90;;;;;;5176883;27;20456;-75
2024/02/11 01:43:52;;;;;;;49.83;34.20;;;8.20;99.90;;;;;;5158079;27;20451;-78
2024/02/11 01:46:21;;;;;;;53.87;38.70;;;8.20;99.90;;;;;;5160711;27;20460;-79
2024/02/11 01:48:50;;;;;;;54.53;35.60;;;8.20;99.90;;;;;;5159031;27;20437;-77
2024/02/11 01:51:19;;;;;;;54.50;35.83;;;8.20;99.90;;;;;;5158898;27;20455;-79
2024/02/11 01:53:49;;;;;;;47.70;33.63;;;8.20;99.90;;;;;;5160345;27;20471;-79
2024/02/11 01:56:20;;;;;;;49.47;34.23;;;8.20;99.90;;;;;;5160624;27;20473;-78
2024/02/11 01:58:51;;;;;;;51.00;34.07;;;8.20;99.90;;;;;;5160291;27;20429;-78
2024/02/11 02:01:21;;;;;;;53.13;34.70;;;8.20;99.90;;;;;;5158472;27;20895;-78
2024/02/11 02:03:49;;;;;;;50.83;35.20;;;8.10;99.90;;;;;;5177892;27;20468;-78
2024/02/11 02:06:19;;;;;;;49.27;32.67;;;8.10;99.90;;;;;;5161952;27;20465;-77
2024/02/11 02:08:48;;;;;;;52.20;34.70;;;8.10;99.90;;;;;;5180962;27;20421;-77
2024/02/11 02:11:17;;;;;;;51.50;34.40;;;8.10;99.90;;;;;;5162449;27;20468;-77
2024/02/11 02:13:46;;;;;;;55.00;37.27;;;8.10;99.90;;;;;;5162094;27;20447;-77
2024/02/11 02:16:14;;;;;;;48.33;34.07;;;8.10;99.90;;;;;;5180793;27;20458;-77
2024/02/11 02:18:46;;;;;;;49.30;34.13;;;8.10;99.90;;;;;;5162385;27;20846;-77
2024/02/11 02:21:18;;;;;;;45.57;32.20;;;8.10;99.90;;;;;;5162706;27;20444;-77
2024/02/11 02:23:48;;;;;;;47.77;33.20;;;8.10;99.90;;;;;;5180500;27;20770;-77
2024/02/11 02:26:16;;;;;;;47.17;33.50;;;8.00;99.90;;;;;;5179970;27;20452;-77
2024/02/11 02:28:45;;;;;;;41.87;32.70;;;8.00;99.90;;;;;;5161300;27;20845;-77
2024/02/11 02:31:13;;;;;;;46.20;33.60;;;8.10;99.90;;;;;;5161915;27;20458;-76
2024/02/11 02:33:43;;;;;;;49.47;36.10;;;8.00;99.90;;;;;;5180136;27;20433;-77
2024/02/11 02:36:11;;;;;;;49.47;34.80;;;8.00;99.90;;;;;;5161296;27;20464;-77
2024/02/11 02:38:40;;;;;;;45.90;34.50;;;8.00;99.90;;;;;;5161376;27;20441;-77
2024/02/11 02:41:09;;;;;;;47.37;34.57;;;8.00;99.90;;;;;;5179643;27;20774;-77
2024/02/11 02:43:38;;;;;;;46.70;33.73;;;8.00;99.90;;;;;;5160837;27;20444;-77
2024/02/11 02:46:09;;;;;;;49.00;34.23;;;8.00;99.90;;;;;;5161010;27;20500;-76
2024/02/11 02:48:37;;;;;;;47.47;32.80;;;8.00;99.90;;;;;;5161514;27;20520;-77
2024/02/11 02:51:05;;;;;;;49.90;34.10;;;8.00;99.90;;;;;;5179401;27;20441;-77
2024/02/11 02:53:34;;;;;;;46.67;33.13;;;8.00;99.90;;;;;;5161012;27;20485;-77
2024/02/11 02:56:02;;;;;;;48.90;34.60;;;8.00;99.90;;;;;;5160566;27;20528;-77
2024/02/11 02:58:31;;;;;;;45.67;33.30;;;8.00;99.90;;;;;;5160446;27;20515;-77
2024/02/11 03:01:04;;;;;;;44.70;32.87;;;8.00;99.90;;;;;;5179373;27;20468;-77
2024/02/11 03:03:33;;;;;;;42.37;31.97;;;8.00;99.90;;;;;;5160774;27;20467;-77
2024/02/11 03:06:01;;;;;;;46.13;34.20;;;8.00;99.90;;;;;;5160963;27;20563;-76
2024/02/11 03:08:30;;;;;;;46.10;32.63;;;8.00;99.90;;;;;;5160783;27;20456;-76
2024/02/11 03:10:58;;;;;;;49.93;34.90;;;7.90;99.90;;;;;;5179860;27;20433;-77
2024/02/11 03:13:26;;;;;;;43.93;31.40;;;7.90;99.90;;;;;;5160617;27;20892;-77
2024/02/11 03:15:58;;;;;;;42.73;32.77;;;7.90;99.90;;;;;;5178865;27;20447;-76
2024/02/11 03:18:27;;;;;;;50.77;34.00;;;7.90;99.90;;;;;;5160529;27;20481;-76
2024/02/11 03:20:55;;;;;;;49.67;32.10;;;7.90;99.90;;;;;;5160745;27;20448;-76
2024/02/11 03:23:23;;;;;;;50.93;33.23;;;7.90;99.90;;;;;;5160511;27;20468;-77
2024/02/11 03:25:51;;;;;;;50.70;33.13;;;7.90;99.90;;;;;;5179574;27;20467;-76
2024/02/11 03:28:20;;;;;;;45.57;33.57;;;7.90;99.90;;;;;;5159732;27;20448;-76
2024/02/11 03:30:48;;;;;;;50.67;34.67;;;7.80;99.90;;;;;;5160218;27;20498;-76
2024/02/11 03:33:17;;;;;;;48.50;33.80;;;7.80;99.90;;;;;;5178641;27;20468;-76
2024/02/11 03:35:46;;;;;;;46.63;34.50;;;7.80;99.90;;;;;;5159755;27;20980;-77
2024/02/11 03:38:18;;;;;;;49.37;31.93;;;7.80;99.90;;;;;;5159289;27;20944;-77
2024/02/11 03:40:47;;;;;;;47.10;32.63;;;7.80;99.90;;;;;;5159472;27;20849;-77
2024/02/11 03:43:15;;;;;;;48.33;33.53;;;7.80;99.90;;;;;;5177982;27;20461;-77
2024/02/11 03:45:43;;;;;;;50.63;34.07;;;7.80;99.90;;;;;;5177991;27;20527;-75
2024/02/11 03:48:12;;;;;;;46.67;34.43;;;7.80;99.90;;;;;;5159238;27;20512;-76
2024/02/11 03:50:42;;;;;;;51.47;34.17;;;7.80;99.90;;;;;;5159335;27;20962;-77
2024/02/11 03:53:10;;;;;;;49.10;35.00;;;7.80;99.90;;;;;;5159074;27;20535;-77
2024/02/11 03:55:38;;;;;;;49.13;33.97;;;7.80;99.90;;;;;;5159133;27;20992;-77
2024/02/11 03:58:07;;;;;;;52.40;34.87;;;7.80;99.90;;;;;;5178466;27;20450;-77
2024/02/11 04:00:35;;;;;;;49.50;32.57;;;7.80;99.90;;;;;;5160149;27;20532;-77
2024/02/11 04:03:03;;;;;;;48.33;34.07;;;7.80;99.90;;;;;;5159908;27;20467;-76
2024/02/11 04:05:32;;;;;;;52.90;34.27;;;7.80;99.90;;;;;;5177691;27;20458;-77
2024/02/11 04:08:08;;;;;;;46.80;33.00;;;7.70;99.90;;;;;;5177917;27;20440;-77
2024/02/11 04:10:39;;;;;;;55.13;34.00;;;7.70;99.90;;;;;;5159335;27;20428;-77
2024/02/11 04:13:09;;;;;;;55.30;35.93;;;7.70;99.90;;;;;;5178286;27;20423;-77
2024/02/11 04:15:38;;;;;;;51.80;34.40;;;7.70;99.90;;;;;;5159581;27;20452;-77
2024/02/11 04:18:10;;;;;;;50.27;34.37;;;7.70;99.90;;;;;;5159560;27;20455;-77
2024/02/11 04:20:39;;;;;;;48.47;34.43;;;7.70;99.90;;;;;;5159793;27;20443;-77
2024/02/11 04:23:09;;;;;;;50.63;35.43;;;7.70;99.90;;;;;;5159745;27;20467;-77
2024/02/11 04:25:41;;;;;;;53.80;34.80;;;7.70;99.90;;;;;;5178700;27;20448;-76
2024/02/11 04:28:10;;;;;;;50.00;35.43;;;7.70;99.90;;;;;;5177362;27;20863;-76
2024/02/11 04:30:42;;;;;;;52.27;35.40;;;7.70;99.90;;;;;;5158888;27;20452;-77
2024/02/11 04:33:14;;;;;;;54.70;36.20;;;7.70;99.90;;;;;;5158866;27;20433;-77
2024/02/11 04:35:43;;;;;;;56.00;34.27;;;7.70;99.90;;;;;;5158125;27;20985;-76
2024/02/11 04:38:13;;;;;;;56.53;36.67;;;7.70;99.90;;;;;;5176969;27;20443;-77
2024/02/11 04:40:43;;;;;;;51.50;35.40;;;7.70;99.90;;;;;;5177588;27;20427;-77
2024/02/11 04:43:12;;;;;;;54.17;36.23;;;7.60;99.90;;;;;;5177534;27;20464;-77
2024/02/11 04:45:41;;;;;;;55.77;37.10;;;7.60;99.90;;;;;;5177734;27;20453;-76
2024/02/11 04:48:11;;;;;;;58.87;35.70;;;7.60;99.90;;;;;;5158841;27;20458;-77
2024/02/11 04:50:39;;;;;;;54.00;35.07;;;7.60;99.90;;;;;;5158513;27;20945;-76
2024/02/11 04:53:09;;;;;;;58.23;37.40;;;7.60;99.90;;;;;;5176808;27;20440;-76
2024/02/11 04:55:43;;;;;;;53.63;35.53;;;7.60;99.90;;;;;;5177402;27;20985;-77
2024/02/11 04:58:14;;;;;;;58.17;38.27;;;7.60;99.90;;;;;;5158571;27;20574;-77
2024/02/11 05:00:47;;;;;;;63.07;38.10;;;7.60;99.90;;;;;;5177303;27;20413;-77
2024/02/11 05:03:18;;;;;;;61.07;38.37;;;7.60;99.90;;;;;;5158305;27;20461;-77
2024/02/11 05:05:49;;;;;;;56.80;36.80;;;7.60;99.90;;;;;;5158210;27;20470;-76
2024/02/11 05:08:20;;;;;;;56.87;35.77;;;7.60;99.90;;;;;;5158582;27;20425;-77
2024/02/11 05:10:52;;;;;;;58.10;38.23;;;7.60;99.90;;;;;;5158692;27;20810;-77
2024/02/11 05:13:23;;;;;;;56.50;38.60;;;7.50;99.90;;;;;;5159046;27;20433;-77
2024/02/11 05:15:53;;;;;;;57.43;36.03;;;7.50;99.90;;;;;;5158332;27;20876;-77
2024/02/11 05:18:23;;;;;;;59.10;38.57;;;7.50;99.90;;;;;;5159763;27;21004;-77
2024/02/11 05:20:52;;;;;;;58.90;36.57;;;7.50;99.90;;;;;;5159755;27;20444;-78
2024/02/11 05:23:20;;;;;;;60.00;37.73;;;7.50;99.90;;;;;;5159802;27;21023;-77
2024/02/11 05:25:51;;;;;;;55.83;35.70;;;7.50;99.90;;;;;;5159807;27;20468;-78
2024/02/11 05:28:19;;;;;;;66.70;38.20;;;7.50;99.90;;;;;;5177856;27;20505;-77
2024/02/11 05:30:50;;;;;;;62.47;36.20;;;7.50;99.90;;;;;;5159566;27;20445;-77
2024/02/11 05:33:20;;;;;;;57.03;38.00;;;7.50;99.90;;;;;;5159588;27;20446;-77
2024/02/11 05:35:50;;;;;;;53.50;37.57;;;7.50;99.90;;;;;;5177570;27;20540;-77
2024/02/11 05:38:21;;;;;;;60.77;38.17;;;7.50;99.90;;;;;;5159370;27;20448;-77
2024/02/11 05:40:56;;;;;;;66.10;38.30;;;7.50;99.90;;;;;;5181571;27;20513;-77
2024/02/11 05:43:26;;;;;;;70.97;38.13;;;7.50;99.90;;;;;;5181934;27;20954;-77
2024/02/11 05:45:55;;;;;;;63.75;37.60;;;7.50;99.90;;;;;;5161122;27;20437;-77
2024/02/11 05:48:24;;;;;;;58.70;37.87;;;7.60;99.90;;;;;;5162510;27;20252;-76
2024/02/11 05:50:52;;;;;;;59.07;37.63;;;7.60;99.90;;;;;;5162254;27;20452;-77
2024/02/11 05:53:21;;;;;;;65.93;37.00;;;7.50;99.90;;;;;;5162457;27;20436;-77
2024/02/11 05:55:49;;;;;;;65.80;37.90;;;7.50;99.90;;;;;;5162606;27;20472;-77
2024/02/11 05:58:20;;;;;;;69.47;39.50;;;7.50;99.90;;;;;;5162360;27;20494;-77
2024/02/11 06:00:49;;;;;;;60.17;36.93;;;7.50;99.90;;;;;;5162138;27;20459;-77
2024/02/11 06:03:20;;;;;;;59.63;36.80;;;7.50;99.90;;;;;;5161877;27;20447;-77
2024/02/11 06:05:49;;;;;;;64.70;36.60;;;7.50;99.90;;;;;;5161984;27;20460;-77
2024/02/11 06:08:19;;;;;;;57.20;36.40;;;7.50;99.90;;;;;;5181001;27;20941;-77
2024/02/11 06:10:47;;;;;;;66.67;37.80;;;7.40;99.90;;;;;;5161700;27;20815;-76
2024/02/11 06:13:18;;;;;;;63.40;37.20;;;7.40;99.90;;;;;;5162361;27;20478;-77
2024/02/11 06:15:47;;;;;;;58.60;37.00;;;7.40;99.90;;;;;;5162061;27;20478;-77
2024/02/11 06:18:17;;;;;;;61.73;37.70;;;7.40;99.90;;;;;;5162637;27;20452;-77
2024/02/11 06:20:46;;;;;;;63.00;35.77;;;7.40;99.90;;;;;;5162063;27;20535;-77
2024/02/11 06:23:16;;;;;;;59.03;37.80;;;7.40;99.90;;;;;;5180345;27;20474;-77
2024/02/11 06:25:44;;;;;;;57.37;35.50;;;7.40;99.90;;;;;;5161501;27;20455;-77
2024/02/11 06:28:13;;;;;;;63.80;36.93;;;7.40;99.90;;;;;;5162293;27;20451;-77
2024/02/11 06:30:42;;;;;;;55.33;36.90;;;7.40;99.90;;;;;;5182179;27;20423;-77
2024/02/11 06:33:12;;;;;;;63.80;37.27;;;7.40;99.90;;;;;;5161746;27;20437;-77
2024/02/11 06:35:40;;;;;;;54.50;34.80;;;7.40;99.90;;;;;;5161293;27;20469;-77
2024/02/11 06:38:09;;;;;;;64.33;37.97;;;7.40;99.90;;;;;;5161150;27;20903;-76
2024/02/11 06:40:37;;;;;;;63.60;38.10;;;7.40;99.90;;;;;;5179861;27;20439;-77
2024/02/11 06:43:11;;;;;;;64.00;36.93;;;7.40;99.90;;;;;;5160989;27;20849;-77
2024/02/11 06:45:45;;;;;;;67.47;39.93;;;7.40;99.90;;;;;;5160886;27;20534;-77
2024/02/11 06:48:16;;;;;;;61.83;36.70;;;7.40;99.90;;;;;;5179626;27;20897;-77
2024/02/11 06:50:44;;;;;;;62.37;38.30;;;7.40;99.90;;;;;;5159973;27;20444;-77
2024/02/11 06:53:13;;;;;;;66.17;38.47;;;7.40;99.90;;;;;;5179974;27;20436;-77
2024/02/11 06:55:41;;;;;;;75.03;39.33;;;7.40;99.90;;;;;;5161386;27;20453;-77
2024/02/11 06:58:10;;;;;;;74.00;38.50;;;7.40;99.90;;;;;;5160663;27;20537;-76
2024/02/11 07:00:38;;;;;;;65.63;39.47;;;7.40;99.90;;;;;;5180471;27;20869;-77
2024/02/11 07:03:10;;;;;;;71.20;39.47;;;7.40;99.90;;;;;;5161080;27;20502;-76
2024/02/11 07:05:41;;;;;;;67.53;40.37;;;7.40;99.90;;;;;;5161000;27;20552;-78
2024/02/11 07:08:11;;;;;;;63.30;38.20;;;7.40;99.90;;;;;;5160701;27;20886;-77
2024/02/11 07:10:40;;;;;;;75.50;41.73;;;7.40;99.90;;;;;;5160841;27;20441;-77
2024/02/11 07:13:09;;;;;;;72.00;39.10;;;7.40;99.90;;;;;;5160870;27;20445;-77
2024/02/11 07:15:37;;;;;;;65.47;38.70;;;7.40;99.90;;;;;;5160097;27;20471;-77
2024/02/11 07:18:07;;;;;;;66.70;41.20;;;7.40;99.90;;;;;;5179648;27;21083;-77
2024/02/11 07:20:36;;;;;;;64.50;38.53;;;7.40;99.90;;;;;;5161125;27;20441;-77
2024/02/11 07:23:06;;;;;;;69.00;40.33;;;7.50;99.90;;;;;;5179792;27;20466;-77
2024/02/11 07:25:35;;;;;;;72.60;39.90;;;7.50;99.90;;;;;;5160305;27;20496;-78
2024/02/11 07:28:05;;;;;;;70.07;39.83;;;7.50;99.90;;;;;;5161224;27;20503;-77
2024/02/11 07:30:34;;;;;;;84.00;42.23;;;7.50;99.90;;;;;;5161278;27;20463;-76
2024/02/11 07:33:02;;;;;;;75.63;40.23;;;7.50;99.90;;;;;;5161396;27;20448;-77
2024/02/11 07:35:31;;;;;;;73.77;38.27;;;7.50;99.90;;;;;;5161283;27;20462;-77
2024/02/11 07:38:02;;;;;;;77.30;39.47;;;7.50;99.90;;;;;;5161047;27;20861;-78
2024/02/11 07:40:32;;;;;;;74.13;39.90;;;7.50;99.90;;;;;;5161233;27;20448;-78
2024/02/11 07:43:01;;;;;;;72.80;38.93;;;7.50;99.90;;;;;;5161154;27;20436;-77
2024/02/11 07:45:29;;;;;;;68.20;38.83;;;7.50;99.90;;;;;;5160551;27;20486;-77
2024/02/11 07:47:58;;;;;;;66.10;40.13;;;7.50;99.90;;;;;;5161021;27;20436;-78
2024/02/11 07:50:27;;;;;;;64.47;38.97;;;7.50;99.90;;;;;;5180071;27;20531;-77
2024/02/11 07:52:56;;;;;;;68.23;38.93;;;7.50;99.90;;;;;;5180060;27;20483;-78
2024/02/11 07:55:24;;;;;;;74.70;39.90;;;7.50;99.90;;;;;;5160867;27;20468;-78
2024/02/11 07:57:55;;;;;;;72.20;40.13;;;7.50;99.90;;;;;;5160827;27;20436;-78
2024/02/11 08:00:23;;;;;;;66.23;37.47;;;7.50;99.90;;;;;;5160598;27;20441;-77
2024/02/11 08:02:51;;;;;;;71.93;39.80;;;7.50;99.90;;;;;;5161362;27;20439;-77
2024/02/11 08:05:22;;;;;;;59.43;36.80;;;7.50;99.90;;;;;;5160897;27;20474;-78
2024/02/11 08:07:52;;;;;;;76.00;40.07;;;7.50;99.90;;;;;;5180228;27;20420;-78
2024/02/11 08:10:22;;;;;;;73.33;37.90;;;7.50;99.90;;;;;;5160590;27;20443;-78
2024/02/11 08:12:52;;;;;;;66.20;37.90;;;7.50;99.90;;;;;;5179734;27;20417;-78
2024/02/11 08:15:23;;;;;;;60.07;35.50;;;7.50;99.90;;;;;;5161853;27;20897;-78
2024/02/11 08:17:52;;;;;;;64.10;36.50;;;7.50;99.90;;;;;;5160380;27;20440;-79
2024/02/11 08:20:21;;;;;;;69.60;37.17;;;7.50;99.90;;;;;;5160208;27;20447;-77
2024/02/11 08:22:49;;;;;;;77.37;40.00;;;7.50;99.90;;;;;;5160260;27;20526;-77
2024/02/11 08:25:18;;;;;;;65.10;35.00;;;7.50;99.90;;;;;;5159940;27;20896;-77
2024/02/11 08:27:46;;;;;;;60.43;35.80;;;7.50;99.90;;;;;;5178742;27;20441;-77
2024/02/11 08:30:16;;;;;;;67.30;36.57;;;7.50;99.90;;;;;;5160204;27;20448;-78
2024/02/11 08:32:47;;;;;;;60.97;36.50;;;7.50;99.90;;;;;;5160532;27;20465;-77
2024/02/11 08:35:15;;;;;;;64.40;35.43;;;7.50;99.90;;;;;;5159694;27;20814;-78
2024/02/11 08:37:44;;;;;;;63.97;36.80;;;7.50;99.90;;;;;;5160071;27;20490;-77
2024/02/11 08:40:13;;;;;;;64.17;36.20;;;7.60;99.90;;;;;;5161593;27;20443;-78
2024/02/11 08:42:42;;;;;;;69.33;36.93;;;7.60;99.90;;;;;;5161907;27;20472;-78
2024/02/11 08:45:11;;;;;;;73.43;38.77;;;7.60;99.90;;;;;;5180007;27;20570;-78
2024/02/11 08:47:40;;;;;;;60.80;37.87;;;7.60;99.90;;;;;;5160669;27;20437;-78
2024/02/11 08:50:11;;;;;;;64.37;35.97;;;7.60;99.90;;;;;;5161889;27;21060;-78
2024/02/11 08:52:40;;;;;;;59.30;37.33;;;7.60;99.90;;;;;;5179974;27;20528;-77
2024/02/11 08:55:10;;;;;;;63.50;36.37;;;7.60;99.90;;;;;;5159956;27;20460;-78
2024/02/11 08:57:38;;;;;;;56.77;34.07;;;7.60;99.90;;;;;;5159680;27;20475;-77
2024/02/11 09:00:12;;;;;;;70.07;38.37;;;7.60;99.90;;;;;;5160588;27;20476;-79
2024/02/11 09:02:42;;;;;;;64.50;38.13;;;7.60;99.90;;;;;;5160528;27;20444;-76
2024/02/11 09:05:12;;;;;;;71.97;39.53;;;7.60;99.90;;;;;;5160404;27;20984;-79
2024/02/11 09:07:42;;;;;;;61.50;35.30;;;7.70;99.90;;;;;;5161309;27;20448;-77
2024/02/11 09:10:13;;;;;;;73.30;38.00;;;7.60;99.90;;;;;;5159954;27;20460;-79
2024/02/11 09:12:42;;;;;;;71.43;38.97;;;7.70;99.90;;;;;;5161949;27;20547;-78
2024/02/11 09:15:11;;;;;;;75.60;37.03;;;7.70;99.90;;;;;;5165079;27;20995;-78
2024/02/11 09:17:44;;;;;;;65.23;37.20;;;7.70;99.90;;;;;;5165620;27;20457;-79
2024/02/11 09:20:14;;;;;;;75.83;38.17;;;7.70;99.90;;;;;;5165608;27;20876;-78
2024/02/11 09:22:42;;;;;;;71.20;37.60;;;7.70;99.90;;;;;;5165346;27;20454;-78
2024/02/11 09:25:13;;;;;;;59.60;36.37;;;7.70;99.90;;;;;;5165234;27;20518;-79
2024/02/11 09:27:43;;;;;;;63.77;38.80;;;7.70;99.90;;;;;;5165512;27;20477;-78
2024/02/11 09:30:15;;;;;;;70.97;40.83;;;7.70;99.90;;;;;;5165551;27;20436;-78
2024/02/11 09:32:46;;;;;;;73.27;42.13;;;7.80;99.90;;;;;;5165243;27;20447;-78
2024/02/11 09:35:20;;;;;;;76.97;40.30;;;7.70;99.90;;;;;;5184173;27;20470;-78
2024/02/11 09:37:51;;;;;;;72.23;39.17;;;7.80;99.90;;;;;;5165140;27;20441;-79
2024/02/11 09:40:19;;;;;;;65.07;38.00;;;7.80;99.90;;;;;;5165084;27;20450;-79
2024/02/11 09:42:50;;;;;;;66.30;38.57;;;7.80;99.90;;;;;;5183696;27;20452;-78
2024/02/11 09:45:20;;;;;;;74.03;37.20;;;7.80;99.90;;;;;;5164663;27;20478;-79
2024/02/11 09:47:52;;;;;;;75.80;40.40;;;7.80;99.90;;;;;;5164831;27;20870;-79
2024/02/11 09:50:24;;;;;;;76.70;39.63;;;7.80;99.90;;;;;;5164778;27;20441;-79
2024/02/11 09:52:53;;;;;;;72.63;39.90;;;7.80;99.90;;;;;;5164534;27;20444;-79
2024/02/11 09:55:22;;;;;;;58.77;37.17;;;7.80;99.90;;;;;;5164313;27;20460;-79
2024/02/11 09:57:51;;;;;;;70.83;38.67;;;7.80;99.90;;;;;;5164380;27;20437;-78
2024/02/11 10:00:21;;;;;;;73.97;39.67;;;7.80;99.90;;;;;;5163975;27;20450;-79
2024/02/11 10:02:51;;;;;;;65.43;36.33;;;7.80;99.90;;;;;;5163812;27;20443;-78
2024/02/11 10:05:24;;;;;;;73.70;42.20;;;7.90;99.90;;;;;;5163626;27;20472;-78
2024/02/11 10:07:56;;;;;;;62.30;36.80;;;7.90;99.90;;;;;;5164470;27;20448;-78
2024/02/11 10:10:25;;;;;;;61.80;35.87;;;7.90;99.90;;;;;;5164412;27;20550;-79
2024/02/11 10:12:57;;;;;;;67.03;37.57;;;7.90;99.90;;;;;;5163691;27;20447;-79
2024/02/11 10:15:26;;;;;;;68.17;37.47;;;7.90;99.90;;;;;;5164187;27;20471;-78
2024/02/11 10:17:55;;;;;;;65.73;36.97;;;7.90;99.90;;;;;;5163780;27;20949;-79
2024/02/11 10:20:24;;;;;;;71.37;37.33;;;7.90;99.90;;;;;;5164311;27;20458;-78
2024/02/11 10:22:54;;;;;;;66.90;41.00;;;7.90;99.90;;;;;;5164155;27;20446;-78
2024/02/11 10:25:23;;;;;;;70.43;38.73;;;7.90;99.90;;;;;;5181683;27;20983;-79
2024/02/11 10:27:52;;;;;;;72.60;41.57;;;7.90;99.90;;;;;;5163283;27;20463;-78
2024/02/11 10:30:20;;;;;;;69.50;44.00;;;7.90;99.90;;;;;;5181459;27;20434;-78
2024/02/11 10:32:49;;;;;;;74.47;47.63;;;7.90;99.90;;;;;;5163435;27;20859;-77
2024/02/11 10:35:18;;;;;;;65.17;36.60;;;7.90;99.90;;;;;;5162829;27;20554;-78
2024/02/11 10:37:48;;;;;;;70.33;39.10;;;8.00;99.90;;;;;;5162671;27;20453;-78
2024/02/11 10:40:24;;;;;;;67.03;45.13;;;7.90;99.90;;;;;;5181714;27;20953;-77
2024/02/11 10:42:54;;;;;;;55.47;34.47;;;7.90;99.90;;;;;;5163118;27;20472;-78
2024/02/11 10:45:23;;;;;;;68.47;37.20;;;7.90;99.90;;;;;;5162702;27;20467;-77
2024/02/11 10:47:51;;;;;;;63.10;37.77;;;8.00;99.90;;;;;;5162167;27;20491;-78
2024/02/11 10:50:20;;;;;;;62.93;36.37;;;8.00;99.90;;;;;;5162225;27;20475;-78
2024/02/11 10:52:50;;;;;;;58.30;36.97;;;8.00;99.90;;;;;;5162719;27;20450;-78
2024/02/11 10:55:23;;;;;;;68.00;35.27;;;8.00;99.90;;;;;;5162176;27;20988;-79
2024/02/11 10:57:55;;;;;;;80.43;61.40;;;8.00;99.90;;;;;;5181116;27;20439;-77
2024/02/11 11:00:27;;;;;;;105.47;70.17;;;8.10;99.90;;;;;;5162989;27;20504;-79
2024/02/11 11:02:59;;;;;;;66.00;37.20;;;8.10;99.90;;;;;;5165968;27;20448;-78
2024/02/11 11:05:32;;;;;;;112.17;77.10;;;8.10;99.90;;;;;;5162461;27;20461;-78
2024/02/11 11:08:02;;;;;;;71.93;43.40;;;8.10;99.90;;;;;;5161857;27;20464;-78
2024/02/11 11:10:36;;;;;;;98.87;77.23;;;8.10;99.90;;;;;;5181214;27;20425;-78
2024/02/11 11:13:06;;;;;;;57.40;33.83;;;8.10;99.90;;;;;;5180215;27;20433;-78
2024/02/11 11:15:35;;;;;;;52.37;32.67;;;8.10;99.90;;;;;;5161523;27;20536;-78
2024/02/11 11:18:04;;;;;;;113.80;78.93;;;8.10;99.90;;;;;;5161440;27;20507;-78
2024/02/11 11:20:33;;;;;;;86.83;56.53;;;8.10;99.90;;;;;;5161142;27;20437;-78
2024/02/11 11:23:02;;;;;;;66.43;40.50;;;8.10;99.90;;;;;;5180670;27;20488;-77
2024/02/11 11:25:32;;;;;;;60.10;43.83;;;8.10;99.90;;;;;;5161767;27;20459;-78
2024/02/11 11:28:14;;;;;;;55.97;35.83;;;8.20;99.90;;;;;;5161698;27;20981;-79
2024/02/11 11:30:43;;;;;;;69.00;38.27;;;8.20;99.90;;;;;;5160981;27;20511;-77
2024/02/11 11:33:13;;;;;;;65.00;36.77;;;8.20;99.90;;;;;;5160758;27;20542;-77
2024/02/11 11:35:43;;;;;;;66.97;40.43;;;8.20;99.90;;;;;;5160276;27;20463;-77
2024/02/11 11:38:11;;;;;;;60.57;38.20;;;8.20;99.90;;;;;;5159897;27;20433;-77
2024/02/11 11:40:40;;;;;;;60.10;36.20;;;8.20;99.90;;;;;;5160669;27;20448;-78
2024/02/11 11:43:17;;;;;;;57.47;35.03;;;8.20;99.90;;;;;;5160073;27;20448;-77
2024/02/11 11:45:56;;;;;;;55.10;37.10;;;8.20;99.90;;;;;;5159305;27;20464;-78
2024/02/11 11:48:26;;;;;;;62.17;36.40;;;8.30;99.90;;;;;;5158990;27;20512;-78
2024/02/11 11:50:58;;;;;;;63.33;37.67;;;8.30;99.90;;;;;;5158787;27;20459;-78
2024/02/11 11:53:27;;;;;;;56.10;35.47;;;8.30;99.90;;;;;;5178175;27;20439;-77
2024/02/11 11:55:57;;;;;;;54.97;36.03;;;8.30;99.90;;;;;;5158877;27;20464;-77
2024/02/11 11:58:27;;;;;;;62.80;37.77;;;8.30;99.90;;;;;;5158854;27;20447;-77
2024/02/11 12:01:00;;;;;;;59.03;35.60;;;8.30;99.90;;;;;;5158727;27;20444;-77
2024/02/11 12:03:29;;;;;;;52.80;34.33;;;8.30;99.90;;;;;;5158656;27;20475;-77
2024/02/11 12:05:58;;;;;;;58.53;35.17;;;8.30;99.90;;;;;;5158492;27;21044;-77
2024/02/11 12:08:27;;;;;;;58.87;34.10;;;8.30;99.90;;;;;;5158754;27;20502;-78
2024/02/11 12:10:57;;;;;;;54.30;33.37;;;8.30;99.90;;;;;;5177144;27;20435;-78
2024/02/11 12:13:30;;;;;;;55.67;35.17;;;8.40;99.90;;;;;;5158444;27;20450;-77
2024/02/11 12:15:59;;;;;;;53.97;34.53;;;8.40;99.90;;;;;;5159165;27;20479;-77
2024/02/11 12:18:28;;;;;;;57.10;34.03;;;8.40;99.90;;;;;;5177932;27;20440;-77
2024/02/11 12:20:57;;;;;;;58.63;36.20;;;8.40;99.90;;;;;;5159352;27;20445;-78
2024/02/11 12:23:26;;;;;;;54.77;34.70;;;8.40;99.90;;;;;;5158983;27;20536;-77
2024/02/11 12:25:56;;;;;;;55.13;33.70;;;8.50;99.90;;;;;;5158961;27;20503;-78
2024/02/11 12:28:27;;;;;;;61.20;35.87;;;8.50;99.90;;;;;;5158149;27;20479;-78
2024/02/11 12:31:08;;;;;;;55.67;35.87;;;8.50;99.90;;;;;;5177800;27;20415;-78
2024/02/11 12:33:38;;;;;;;57.93;35.07;;;8.50;99.90;;;;;;5159202;27;20435;-78
2024/02/11 12:36:08;;;;;;;59.57;38.53;;;8.50;99.90;;;;;;5159181;27;20941;-78
2024/02/11 12:38:38;;;;;;;56.27;35.83;;;8.50;99.90;;;;;;5178397;27;20417;-78
2024/02/11 12:41:07;;;;;;;54.37;36.10;;;8.50;99.90;;;;;;5159150;27;20523;-78
2024/02/11 12:43:39;;;;;;;53.40;36.00;;;8.60;99.90;;;;;;5159236;27;20531;-78
2024/02/11 12:46:08;;;;;;;57.10;34.93;;;8.60;99.90;;;;;;5159090;27;20457;-78
2024/02/11 12:48:37;;;;;;;67.13;35.80;;;8.60;99.90;;;;;;5158088;27;20482;-78